createdAt,value
2018-03-08T00:00:26.265Z,6.37
2018-03-08T00:02:54.264Z,6.57
2018-03-08T00:05:22.820Z,6.53
2018-03-08T00:07:50.373Z,8.82
2018-03-08T00:10:19.237Z,6.43
2018-03-08T00:12:47.308Z,8.95
2018-03-08T00:15:14.870Z,5.80
2018-03-08T00:17:43.086Z,6.78
2018-03-08T00:20:10.646Z,9.95
2018-03-08T00:22:38.194Z,5.95
2018-03-08T00:25:05.830Z,7.43
2018-03-08T00:27:33.413Z,6.35
2018-03-08T00:30:00.966Z,6.78
2018-03-08T00:32:29.459Z,5.80
2018-03-08T00:34:57.284Z,5.05
2018-03-08T00:37:24.838Z,6.70
2018-03-08T00:39:52.644Z,6.70
2018-03-08T00:42:20.202Z,16.48
2018-03-08T00:44:49.277Z,9.73
2018-03-08T00:47:17.710Z,20.08
2018-03-08T00:49:46.025Z,7.18
2018-03-08T00:52:14.358Z,8.60
2018-03-08T00:54:41.930Z,6.47
2018-03-08T00:57:10.249Z,5.60
2018-03-08T00:59:37.874Z,6.18
2018-03-08T01:02:05.704Z,8.70
2018-03-08T01:04:33.262Z,8.07
2018-03-08T01:07:00.963Z,6.62
2018-03-08T01:09:28.590Z,6.22
2018-03-08T01:11:56.142Z,9.13
2018-03-08T01:14:23.694Z,7.60
2018-03-08T01:16:51.298Z,7.75
2018-03-08T01:19:19.638Z,5.62
2018-03-08T01:21:47.194Z,7.10
2018-03-08T01:24:14.793Z,7.25
2018-03-08T01:26:42.363Z,14.52
2018-03-08T01:29:09.944Z,6.93
2018-03-08T01:31:37.839Z,6.97
2018-03-08T01:34:05.398Z,6.12
2018-03-08T01:36:32.951Z,5.87
2018-03-08T01:39:02.261Z,8.23
2018-03-08T01:41:29.818Z,8.63
2018-03-08T01:43:57.373Z,7.07
2018-03-08T01:46:25.658Z,7.65
2018-03-08T01:48:53.210Z,6.28
2018-03-08T01:51:20.787Z,6.32
2018-03-08T01:53:48.394Z,6.90
2018-03-08T01:56:15.966Z,10.40
2018-03-08T01:58:43.526Z,8.35
2018-03-08T02:01:11.123Z,5.80
2018-03-08T02:03:38.698Z,6.65
2018-03-08T02:06:07.043Z,5.60
2018-03-08T02:08:34.627Z,5.85
2018-03-08T02:11:02.250Z,7.07
2018-03-08T02:13:29.837Z,5.15
2018-03-08T02:15:59.087Z,5.30
2018-03-08T02:18:27.098Z,6.00
2018-03-08T02:20:54.650Z,6.78
2018-03-08T02:23:22.206Z,6.25
2018-03-08T02:25:50.303Z,7.28
2018-03-08T02:28:17.862Z,7.22
2018-03-08T02:30:45.417Z,9.70
2018-03-08T02:33:13.277Z,16.25
2018-03-08T02:35:40.851Z,11.18
2018-03-08T02:38:08.415Z,17.98
2018-03-08T02:40:37.087Z,10.70
2018-03-08T02:43:04.647Z,11.55
2018-03-08T02:45:32.982Z,14.55
2018-03-08T02:48:01.167Z,11.57
2018-03-08T02:50:28.731Z,18.83
2018-03-08T02:52:56.308Z,6.68
2018-03-08T02:55:24.355Z,22.35
2018-03-08T02:57:51.917Z,8.95
2018-03-08T03:00:19.470Z,7.30
2018-03-08T03:02:47.212Z,5.55
2018-03-08T03:05:14.883Z,5.53
2018-03-08T03:07:42.434Z,4.43
2018-03-08T03:10:10.871Z,6.40
2018-03-08T03:12:38.446Z,7.10
2018-03-08T03:15:06.013Z,5.12
2018-03-08T03:17:33.614Z,4.93
2018-03-08T03:20:01.178Z,5.18
2018-03-08T03:22:28.734Z,8.35
2018-03-08T03:24:56.843Z,6.12
2018-03-08T03:27:24.410Z,5.95
2018-03-08T03:29:52.007Z,7.32
2018-03-08T03:32:19.597Z,6.05
2018-03-08T03:34:47.148Z,6.78
2018-03-08T03:37:14.700Z,5.40
2018-03-08T03:39:42.598Z,4.78
2018-03-08T03:42:10.168Z,5.28
2018-03-08T03:44:38.502Z,4.55
2018-03-08T03:47:06.110Z,4.75
2018-03-08T03:49:35.294Z,7.97
2018-03-08T03:52:02.850Z,10.40
2018-03-08T03:54:30.618Z,5.72
2018-03-08T03:56:58.344Z,5.45
2018-03-08T03:59:25.908Z,6.68
2018-03-08T04:01:53.922Z,6.20
2018-03-08T04:04:21.478Z,5.25
2018-03-08T04:06:49.035Z,6.00
2018-03-08T04:09:16.807Z,5.72
2018-03-08T04:11:44.361Z,5.30
2018-03-08T04:14:11.921Z,5.87
2018-03-08T04:16:39.508Z,4.60
2018-03-08T04:19:07.103Z,5.87
2018-03-08T04:21:34.655Z,6.60
2018-03-08T04:24:02.358Z,8.15
2018-03-08T04:26:29.918Z,4.15
2018-03-08T04:28:57.511Z,5.78
2018-03-08T04:31:26.580Z,5.30
2018-03-08T04:33:54.150Z,6.47
2018-03-08T04:36:21.859Z,4.10
2018-03-08T04:38:50.180Z,5.87
2018-03-08T04:41:17.734Z,4.82
2018-03-08T04:43:46.793Z,5.10
2018-03-08T04:46:14.634Z,5.40
2018-03-08T04:48:42.949Z,4.57
2018-03-08T04:51:10.510Z,5.72
2018-03-08T04:53:38.949Z,5.53
2018-03-08T04:56:06.530Z,5.78
2018-03-08T04:58:34.087Z,6.37
2018-03-08T05:01:01.814Z,4.95
2018-03-08T05:03:30.162Z,4.68
2018-03-08T05:05:57.726Z,5.80
2018-03-08T05:08:25.834Z,4.28
2018-03-08T05:10:54.157Z,4.90
2018-03-08T05:13:21.708Z,5.55
2018-03-08T05:15:49.409Z,5.65
2018-03-08T05:18:16.968Z,4.80
2018-03-08T05:20:44.521Z,4.15
2018-03-08T05:23:12.385Z,5.60
2018-03-08T05:25:39.938Z,4.37
2018-03-08T05:28:07.698Z,5.32
2018-03-08T05:30:36.149Z,6.97
2018-03-08T05:33:03.698Z,7.75
2018-03-08T05:35:31.311Z,6.45
2018-03-08T05:38:00.656Z,6.93
2018-03-08T05:40:28.214Z,6.35
2018-03-08T05:42:55.770Z,5.37
2018-03-08T05:45:24.814Z,6.10
2018-03-08T05:47:52.374Z,5.55
2018-03-08T05:50:23.374Z,4.40
2018-03-08T05:52:51.469Z,4.75
2018-03-08T05:55:19.025Z,5.70
2018-03-08T05:57:46.575Z,5.45
2018-03-08T06:00:17.342Z,6.80
2018-03-08T06:02:45.609Z,5.90
2018-03-08T06:05:13.159Z,5.15
2018-03-08T06:07:41.811Z,4.30
2018-03-08T06:10:09.362Z,4.75
2018-03-08T06:12:36.922Z,6.97
2018-03-08T06:15:06.022Z,5.70
2018-03-08T06:17:33.578Z,6.07
2018-03-08T06:20:01.145Z,6.07
2018-03-08T06:22:29.775Z,8.80
2018-03-08T06:24:58.761Z,8.15
2018-03-08T06:27:26.318Z,6.50
2018-03-08T06:29:55.027Z,7.80
2018-03-08T06:32:22.612Z,5.20
2018-03-08T06:34:50.177Z,9.02
2018-03-08T06:37:19.578Z,8.77
2018-03-08T06:39:48.088Z,5.90
2018-03-08T06:42:15.651Z,8.75
2018-03-08T06:44:43.255Z,6.90
2018-03-08T06:47:11.598Z,5.22
2018-03-08T06:49:39.162Z,6.62
2018-03-08T06:52:07.046Z,5.40
2018-03-08T06:54:34.605Z,5.50
2018-03-08T06:57:02.168Z,6.12
2018-03-08T06:59:31.447Z,4.35
2018-03-08T07:01:59.006Z,5.07
2018-03-08T07:04:26.567Z,9.32
2018-03-08T07:06:54.474Z,7.18
2018-03-08T07:09:22.797Z,7.25
2018-03-08T07:11:51.770Z,6.12
2018-03-08T07:14:20.719Z,6.10
2018-03-08T07:16:48.292Z,8.15
2018-03-08T07:19:15.875Z,6.20
2018-03-08T07:21:45.342Z,6.57
2018-03-08T07:24:13.814Z,5.35
2018-03-08T07:26:41.383Z,6.55
2018-03-08T07:29:12.811Z,6.12
2018-03-08T07:31:40.364Z,5.12
2018-03-08T07:34:11.720Z,5.85
2018-03-08T07:36:40.499Z,6.43
2018-03-08T07:39:08.052Z,5.60
2018-03-08T07:41:35.611Z,5.85
2018-03-08T07:44:04.121Z,5.32
2018-03-08T07:46:31.677Z,8.90
2018-03-08T07:48:59.243Z,6.50
2018-03-08T07:51:28.608Z,5.12
2018-03-08T07:53:56.170Z,6.32
2018-03-08T07:56:25.596Z,6.50
2018-03-08T07:58:57.074Z,6.25
2018-03-08T08:01:25.401Z,9.50
2018-03-08T08:03:52.956Z,7.95
2018-03-08T08:06:34.589Z,8.95
2018-03-08T08:09:09.902Z,6.55
2018-03-08T08:11:39.566Z,6.05
2018-03-08T08:14:07.909Z,6.05
2018-03-08T08:16:36.373Z,8.10
2018-03-08T08:19:03.981Z,10.40
2018-03-08T08:21:32.322Z,7.00
2018-03-08T08:23:59.891Z,5.70
2018-03-08T08:26:27.597Z,5.47
2018-03-08T08:28:58.966Z,6.30
2018-03-08T08:31:26.535Z,5.93
2018-03-08T08:33:57.521Z,4.43
2018-03-08T08:36:27.173Z,5.95
2018-03-08T08:38:54.734Z,6.53
2018-03-08T08:41:26.123Z,7.07
2018-03-08T08:43:53.756Z,11.93
2018-03-08T08:46:21.302Z,5.32
2018-03-08T08:48:49.198Z,5.07
2018-03-08T08:51:16.767Z,6.00
2018-03-08T08:53:44.333Z,5.62
2018-03-08T08:56:12.057Z,10.15
2018-03-08T08:58:39.629Z,8.18
2018-03-08T09:01:07.214Z,8.55
2018-03-08T09:03:34.977Z,6.12
2018-03-08T09:06:02.541Z,7.22
2018-03-08T09:08:32.813Z,5.65
2018-03-08T09:11:03.814Z,6.80
2018-03-08T09:13:31.640Z,8.30
2018-03-08T09:16:02.260Z,6.15
2018-03-08T09:18:29.812Z,6.45
2018-03-08T09:20:57.419Z,6.05
2018-03-08T09:23:28.765Z,5.43
2018-03-08T09:25:56.324Z,4.20
2018-03-08T09:28:23.873Z,4.10
2018-03-08T09:30:51.478Z,5.22
2018-03-08T09:33:19.253Z,7.75
2018-03-08T09:35:46.806Z,5.18
2018-03-08T09:38:16.308Z,5.80
2018-03-08T09:40:43.886Z,6.35
2018-03-08T09:43:11.459Z,6.15
2018-03-08T09:45:39.957Z,7.72
2018-03-08T09:48:07.678Z,14.35
2018-03-08T09:50:36.197Z,9.10
2018-03-08T09:53:07.682Z,7.57
2018-03-08T09:55:36.007Z,9.07
2018-03-08T09:58:03.773Z,10.70
2018-03-08T10:00:31.363Z,7.40
2018-03-08T10:02:58.930Z,8.15
2018-03-08T10:05:26.481Z,6.37
2018-03-08T10:07:55.474Z,10.70
2018-03-08T10:10:23.026Z,10.88
2018-03-08T10:12:53.713Z,6.35
2018-03-08T10:15:24.598Z,5.07
2018-03-08T10:17:52.153Z,5.05
2018-03-08T10:20:19.877Z,6.10
2018-03-08T10:22:48.294Z,7.07
2018-03-08T10:25:15.844Z,8.13
2018-03-08T10:27:43.494Z,6.75
2018-03-08T10:30:12.814Z,5.10
2018-03-08T10:32:40.381Z,11.25
2018-03-08T10:35:07.926Z,8.82
2018-03-08T10:37:38.878Z,13.75
2018-03-08T10:40:06.430Z,10.23
2018-03-08T10:45:05.378Z,10.20
2018-03-08T10:47:32.941Z,3.97
2018-03-08T10:50:00.504Z,5.65
2018-03-08T10:52:30.145Z,5.65
2018-03-08T10:54:57.729Z,6.32
2018-03-08T10:57:25.508Z,4.87
2018-03-08T10:59:53.056Z,5.60
2018-03-08T11:02:38.738Z,11.32
2018-03-08T11:05:07.022Z,9.43
2018-03-08T11:07:36.428Z,7.75
2018-03-08T11:10:05.515Z,6.20
2018-03-08T11:12:33.066Z,5.30
2018-03-08T11:15:00.715Z,6.85
2018-03-08T11:17:28.635Z,4.90
2018-03-08T11:19:56.191Z,4.93
2018-03-08T11:22:24.510Z,4.43
2018-03-08T11:24:52.094Z,7.72
2018-03-08T11:27:19.645Z,9.68
2018-03-08T11:29:47.254Z,9.13
2018-03-08T11:32:15.610Z,9.98
2018-03-08T11:34:43.173Z,6.78
2018-03-08T11:37:10.758Z,7.78
2018-03-08T11:39:44.077Z,5.93
2018-03-08T11:42:11.632Z,5.15
2018-03-08T11:44:39.942Z,5.50
2018-03-08T11:47:09.933Z,4.82
2018-03-08T11:49:37.494Z,4.53
2018-03-08T11:52:05.069Z,5.30
2018-03-08T11:54:33.185Z,5.10
2018-03-08T11:57:00.737Z,9.25
2018-03-08T11:59:29.052Z,9.20
2018-03-08T12:01:58.299Z,5.62
2018-03-08T12:04:25.857Z,12.40
2018-03-08T12:06:53.415Z,8.00
2018-03-08T12:09:23.733Z,6.37
2018-03-08T12:11:53.013Z,13.65
2018-03-08T12:14:20.577Z,10.95
2018-03-08T12:16:51.385Z,12.63
2018-03-08T12:19:18.915Z,6.10
2018-03-08T12:21:46.486Z,5.97
2018-03-08T12:24:14.817Z,5.60
2018-03-08T12:26:42.389Z,5.22
2018-03-08T12:29:09.945Z,4.35
2018-03-08T12:31:41.286Z,4.65
2018-03-08T12:34:08.850Z,4.45
2018-03-08T12:36:37.433Z,4.22
2018-03-08T12:39:05.298Z,4.90
2018-03-08T12:41:32.849Z,7.43
2018-03-08T12:44:00.587Z,19.92
2018-03-08T12:46:28.208Z,15.30
2018-03-08T12:48:56.506Z,22.33
2018-03-08T12:51:24.054Z,16.80
2018-03-08T12:53:52.698Z,11.65
2018-03-08T12:56:20.252Z,19.12
2018-03-08T12:58:48.446Z,9.30
2018-03-08T13:01:16.000Z,18.23
2018-03-08T13:03:43.554Z,12.95
2018-03-08T13:06:15.707Z,7.85
2018-03-08T13:08:43.253Z,5.95
2018-03-08T13:11:10.818Z,5.12
2018-03-08T13:13:38.878Z,6.87
2018-03-08T13:16:08.157Z,5.43
2018-03-08T13:18:35.720Z,5.03
2018-03-08T13:21:04.681Z,6.00
2018-03-08T13:23:32.277Z,5.97
2018-03-08T13:26:00.393Z,7.85
2018-03-08T13:28:30.414Z,5.32
2018-03-08T13:30:57.963Z,7.53
2018-03-08T13:33:26.318Z,6.62
2018-03-08T13:35:57.512Z,10.82
2018-03-08T13:38:26.029Z,7.45
2018-03-08T13:40:53.647Z,11.02
2018-03-08T13:43:21.988Z,15.85
2018-03-08T13:45:49.773Z,9.40
2018-03-08T13:48:17.327Z,13.93
2018-03-08T13:50:44.878Z,20.98
2018-03-08T13:53:12.478Z,20.55
2018-03-08T13:55:40.040Z,10.40
2018-03-08T13:58:10.067Z,7.68
2018-03-08T14:00:39.740Z,7.70
2018-03-08T14:03:07.283Z,6.90
2018-03-08T14:05:35.345Z,5.47
2018-03-08T14:08:02.895Z,5.70
2018-03-08T14:10:30.437Z,5.80
2018-03-08T14:13:00.614Z,7.30
2018-03-08T14:15:28.959Z,5.40
2018-03-08T14:17:56.533Z,6.10
2018-03-08T14:20:24.824Z,8.38
2018-03-08T14:22:55.020Z,40.80
2018-03-08T14:25:22.577Z,18.42
2018-03-08T14:27:53.134Z,29.12
2018-03-08T14:30:21.488Z,19.27
2018-03-08T14:32:49.035Z,17.48
2018-03-08T14:35:20.201Z,14.32
2018-03-08T14:37:47.746Z,7.60
2018-03-08T14:40:15.297Z,8.27
2018-03-08T14:42:46.269Z,10.88
2018-03-08T14:45:15.249Z,10.07
2018-03-08T14:47:42.830Z,7.53
2018-03-08T14:50:12.934Z,7.15
2018-03-08T14:52:40.502Z,7.05
2018-03-08T14:55:08.050Z,8.13
2018-03-08T14:57:40.217Z,7.05
2018-03-08T15:00:07.771Z,8.45
2018-03-08T15:02:35.333Z,22.55
2018-03-08T15:05:06.150Z,9.52
2018-03-08T15:07:33.704Z,8.52
2018-03-08T15:10:12.457Z,7.75
2018-03-08T15:12:40.012Z,14.15
2018-03-08T15:15:07.620Z,17.37
2018-03-08T15:17:39.662Z,30.15
2018-03-08T15:20:13.642Z,17.42
2018-03-08T15:22:45.023Z,15.55
2018-03-08T15:25:12.597Z,17.95
2018-03-08T15:27:40.914Z,13.30
2018-03-08T15:30:09.729Z,14.27
2018-03-08T15:32:37.368Z,19.42
2018-03-08T15:35:04.963Z,19.67
2018-03-08T15:37:32.715Z,27.15
2018-03-08T15:40:00.264Z,11.40
2018-03-08T15:42:27.805Z,6.97
2018-03-08T15:44:55.576Z,5.35
2018-03-08T15:47:23.155Z,8.15
2018-03-08T15:49:50.856Z,8.18
2018-03-08T15:52:19.302Z,6.00
2018-03-08T15:54:46.844Z,8.57
2018-03-08T15:57:14.395Z,16.85
2018-03-08T15:59:42.283Z,9.25
2018-03-08T16:02:09.919Z,18.75
2018-03-08T16:04:37.473Z,20.73
2018-03-08T16:10:37.135Z,16.25
2018-03-08T16:13:06.133Z,11.25
2018-03-08T16:15:33.698Z,10.25
2018-03-08T16:18:01.244Z,8.25
2018-03-08T16:20:30.346Z,11.70
2018-03-08T16:23:04.270Z,12.37
2018-03-08T16:25:35.798Z,11.65
2018-03-08T16:28:03.389Z,12.52
2018-03-08T16:30:31.710Z,12.52
2018-03-08T16:33:00.371Z,11.30
2018-03-08T16:35:27.921Z,9.38
2018-03-08T16:37:55.470Z,9.27
2018-03-08T16:40:26.631Z,12.90
2018-03-08T16:42:54.191Z,15.13
2018-03-08T16:45:23.236Z,9.82
2018-03-08T16:47:55.710Z,11.70
2018-03-08T16:50:23.266Z,21.95
2018-03-08T16:52:50.822Z,18.98
2018-03-08T16:55:24.238Z,11.55
2018-03-08T16:57:51.808Z,21.58
2018-03-08T17:00:20.171Z,18.60
2018-03-08T17:02:50.291Z,21.70
2018-03-08T17:05:19.126Z,21.25
2018-03-08T17:07:46.723Z,17.30
2018-03-08T17:10:14.529Z,17.33
2018-03-08T17:12:42.847Z,26.17
2018-03-08T17:15:10.394Z,15.25
2018-03-08T17:17:37.977Z,13.48
2018-03-08T17:20:05.532Z,12.32
2018-03-08T17:22:33.121Z,12.65
2018-03-08T17:25:00.908Z,12.40
2018-03-08T17:27:29.241Z,13.05
2018-03-08T17:29:56.794Z,18.20
2018-03-08T17:32:24.556Z,16.37
2018-03-08T17:34:52.110Z,14.68
2018-03-08T17:37:19.682Z,13.60
2018-03-08T17:39:51.157Z,56.25
2018-03-08T17:42:18.715Z,42.97
2018-03-08T17:44:46.269Z,35.63
2018-03-08T17:47:13.869Z,54.80
2018-03-08T17:49:42.651Z,27.27
2018-03-08T17:52:10.966Z,20.00
2018-03-08T17:54:42.034Z,30.85
2018-03-08T17:57:09.593Z,31.25
2018-03-08T17:59:37.146Z,20.23
2018-03-08T18:02:09.114Z,15.10
2018-03-08T18:04:36.666Z,14.82
2018-03-08T18:07:04.218Z,12.90
2018-03-08T18:09:32.108Z,13.23
2018-03-08T18:11:59.654Z,13.62
2018-03-08T18:14:27.210Z,12.18
2018-03-08T18:16:58.173Z,13.32
2018-03-08T18:19:25.725Z,16.62
2018-03-08T18:21:53.273Z,74.07
2018-03-08T18:24:24.450Z,25.45
2018-03-08T18:26:52.766Z,14.35
2018-03-08T18:29:20.324Z,20.88
2018-03-08T18:31:53.753Z,19.80
2018-03-08T18:34:25.627Z,26.02
2018-03-08T18:36:54.001Z,24.87
2018-03-08T18:39:21.553Z,28.92
2018-03-08T18:41:49.128Z,25.15
2018-03-08T18:44:18.614Z,24.85
2018-03-08T18:46:46.175Z,21.42
2018-03-08T18:49:13.724Z,20.15
2018-03-08T18:51:43.655Z,39.65
2018-03-08T18:54:11.244Z,25.92
2018-03-08T18:56:39.735Z,27.08
2018-03-08T18:59:09.905Z,20.98
2018-03-08T19:01:37.457Z,18.65
2018-03-08T19:04:05.003Z,16.35
2018-03-08T19:06:32.844Z,14.45
2018-03-08T19:09:01.381Z,15.70
2018-03-08T19:11:28.941Z,17.30
2018-03-08T19:13:56.493Z,16.08
2018-03-08T19:16:25.463Z,15.75
2018-03-08T19:18:53.027Z,31.67
2018-03-08T19:21:20.576Z,60.17
2018-03-08T19:23:51.650Z,32.28
2018-03-08T19:26:19.197Z,29.90
2018-03-08T19:28:46.757Z,28.17
2018-03-08T19:31:14.362Z,25.00
2018-03-08T19:33:41.925Z,25.10
2018-03-08T19:36:10.247Z,20.35
2018-03-08T19:38:43.563Z,20.12
2018-03-08T19:41:11.916Z,18.87
2018-03-08T19:43:39.464Z,21.10
2018-03-08T19:46:09.832Z,18.52
2018-03-08T19:48:37.395Z,19.02
2018-03-08T19:51:06.290Z,18.12
2018-03-08T19:53:38.950Z,15.50
2018-03-08T19:56:06.493Z,16.23
2018-03-08T19:58:34.055Z,16.60
2018-03-08T20:01:03.371Z,17.33
2018-03-08T20:03:37.691Z,26.35
2018-03-08T20:06:05.251Z,19.58
2018-03-08T20:08:36.914Z,17.73
2018-03-08T20:11:04.462Z,17.75
2018-03-08T20:13:41.307Z,20.55
2018-03-08T20:16:10.252Z,25.92
2018-03-08T20:18:37.785Z,22.45
2018-03-08T20:21:08.355Z,28.55
2018-03-08T20:23:36.174Z,22.13
2018-03-08T20:26:04.245Z,36.30
2018-03-08T20:28:33.871Z,20.85
2018-03-08T20:31:01.441Z,33.70
2018-03-08T20:33:28.990Z,32.13
2018-03-08T20:35:59.588Z,21.10
2018-03-08T20:38:27.342Z,16.17
2018-03-08T20:40:54.903Z,13.90
2018-03-08T20:43:22.476Z,16.42
2018-03-08T20:45:50.136Z,13.65
2018-03-08T20:48:17.682Z,15.32
2018-03-08T20:50:45.695Z,26.30
2018-03-08T20:53:13.245Z,25.05
2018-03-08T20:55:40.802Z,23.80
2018-03-08T20:58:11.731Z,33.15
2018-03-08T21:00:39.296Z,26.70
2018-03-08T21:03:06.837Z,31.98
2018-03-08T21:05:36.246Z,25.27
2018-03-08T21:08:04.248Z,30.92
2018-03-08T21:10:31.795Z,24.27
2018-03-08T21:12:59.362Z,28.20
2018-03-08T21:15:26.947Z,29.17
2018-03-08T21:17:58.075Z,20.00
2018-03-08T21:20:25.640Z,19.80
2018-03-08T21:22:53.962Z,22.58
2018-03-08T21:25:26.491Z,23.45
2018-03-08T21:27:54.822Z,28.17
2018-03-08T21:30:24.418Z,22.65
2018-03-08T21:32:55.186Z,20.95
2018-03-08T21:35:22.750Z,32.15
2018-03-08T21:37:50.308Z,55.80
2018-03-08T21:40:19.817Z,18.52
2018-03-08T21:42:47.366Z,17.92
2018-03-08T21:45:14.915Z,19.60
2018-03-08T21:47:45.442Z,18.02
2018-03-08T21:50:13.009Z,26.80
2018-03-08T21:52:43.203Z,19.27
2018-03-08T21:55:14.029Z,17.98
2018-03-08T21:57:41.585Z,18.85
2018-03-08T22:00:09.159Z,33.45
2018-03-08T22:02:36.786Z,23.23
2018-03-08T22:05:05.125Z,37.88
2018-03-08T22:07:32.682Z,23.92
2018-03-08T22:10:00.966Z,17.50
2018-03-08T22:12:28.525Z,16.73
2018-03-08T22:14:56.668Z,13.95
2018-03-08T22:17:25.596Z,14.00
2018-03-08T22:19:53.145Z,16.25
2018-03-08T22:22:20.698Z,13.70
2018-03-08T22:24:48.925Z,14.05
2018-03-08T22:27:16.472Z,18.52
2018-03-08T22:29:44.790Z,20.48
2018-03-08T22:32:13.291Z,19.12
2018-03-08T22:34:40.845Z,17.42
2018-03-08T22:37:10.061Z,25.95
2018-03-08T22:39:38.026Z,19.87
2018-03-08T22:42:05.583Z,21.40
2018-03-08T22:44:33.130Z,20.55
2018-03-08T22:47:01.042Z,17.75
2018-03-08T22:49:29.363Z,22.48
2018-03-08T22:51:56.929Z,20.17
2018-03-08T22:54:25.648Z,17.40
2018-03-08T22:56:53.193Z,17.17
2018-03-08T22:59:21.222Z,17.85
2018-03-08T23:02:03.929Z,19.58
2018-03-08T23:04:31.482Z,19.15
2018-03-08T23:06:59.812Z,20.42
2018-03-08T23:09:30.730Z,20.70
2018-03-08T23:11:58.286Z,41.50
2018-03-08T23:14:25.836Z,15.38
2018-03-08T23:16:53.454Z,15.57
2018-03-08T23:19:21.794Z,17.42
2018-03-08T23:21:49.339Z,16.17
2018-03-08T23:24:17.035Z,15.18
2018-03-08T23:26:44.598Z,23.00
2018-03-08T23:29:12.155Z,47.35
2018-03-08T23:31:39.770Z,27.48
2018-03-08T23:34:07.341Z,16.77
2018-03-08T23:36:34.891Z,20.83
2018-03-08T23:39:02.492Z,20.05
2018-03-08T23:41:30.041Z,27.67
2018-03-08T23:43:57.593Z,18.37
2018-03-08T23:46:25.580Z,18.55
2018-03-08T23:48:53.134Z,13.62
2018-03-08T23:51:20.685Z,16.23
2018-03-08T23:53:48.776Z,12.40
2018-03-08T23:56:16.400Z,12.85
2018-03-08T23:58:43.967Z,13.48
